sensor_id;sensor_type;location;lat;lon;timestamp;P1;durP1;ratioP1;P2;durP2;ratioP2
33138;SDS011;19501;50.948;5.316;2022-07-15T00:00:15;13.32;;;4.40;;
33138;SDS011;19501;50.948;5.316;2022-07-15T00:02:41;14.05;;;4.35;;
33138;SDS011;19501;50.948;5.316;2022-07-15T00:05:07;16.90;;;5.18;;
33138;SDS011;19501;50.948;5.316;2022-07-15T00:07:33;17.13;;;4.75;;
33138;SDS011;19501;50.948;5.316;2022-07-15T00:10:00;11.68;;;4.07;;
33138;SDS011;19501;50.948;5.316;2022-07-15T00:12:45;14.40;;;4.63;;
33138;SDS011;19501;50.948;5.316;2022-07-15T00:15:14;17.63;;;5.13;;
33138;SDS011;19501;50.948;5.316;2022-07-15T00:17:42;17.00;;;4.38;;
33138;SDS011;19501;50.948;5.316;2022-07-15T00:20:09;17.00;;;4.55;;
33138;SDS011;19501;50.948;5.316;2022-07-15T00:22:36;18.23;;;4.88;;
33138;SDS011;19501;50.948;5.316;2022-07-15T00:25:03;14.95;;;4.20;;
33138;SDS011;19501;50.948;5.316;2022-07-15T00:27:29;14.63;;;4.75;;
33138;SDS011;19501;50.948;5.316;2022-07-15T00:29:55;17.52;;;4.70;;
33138;SDS011;19501;50.948;5.316;2022-07-15T00:32:20;15.73;;;4.47;;
33138;SDS011;19501;50.948;5.316;2022-07-15T00:34:46;15.40;;;4.88;;
33138;SDS011;19501;50.948;5.316;2022-07-15T00:37:12;17.17;;;5.43;;
33138;SDS011;19501;50.948;5.316;2022-07-15T00:39:38;16.05;;;4.70;;
33138;SDS011;19501;50.948;5.316;2022-07-15T00:42:04;17.33;;;5.13;;
33138;SDS011;19501;50.948;5.316;2022-07-15T00:44:31;16.05;;;4.90;;
33138;SDS011;19501;50.948;5.316;2022-07-15T00:46:57;18.63;;;4.88;;
33138;SDS011;19501;50.948;5.316;2022-07-15T00:49:25;17.02;;;4.28;;
33138;SDS011;19501;50.948;5.316;2022-07-15T00:51:52;16.70;;;4.95;;
33138;SDS011;19501;50.948;5.316;2022-07-15T00:54:26;18.95;;;4.68;;
33138;SDS011;19501;50.948;5.316;2022-07-15T00:56:54;17.90;;;4.70;;
33138;SDS011;19501;50.948;5.316;2022-07-15T00:59:21;15.30;;;5.10;;
33138;SDS011;19501;50.948;5.316;2022-07-15T01:01:51;16.08;;;4.93;;
33138;SDS011;19501;50.948;5.316;2022-07-15T01:04:18;19.63;;;4.78;;
33138;SDS011;19501;50.948;5.316;2022-07-15T01:06:46;18.85;;;4.93;;
33138;SDS011;19501;50.948;5.316;2022-07-15T01:09:12;20.83;;;6.07;;
33138;SDS011;19501;50.948;5.316;2022-07-15T01:11:38;23.23;;;5.40;;
33138;SDS011;19501;50.948;5.316;2022-07-15T01:14:05;17.60;;;4.93;;
33138;SDS011;19501;50.948;5.316;2022-07-15T01:16:32;18.35;;;4.78;;
33138;SDS011;19501;50.948;5.316;2022-07-15T01:18:57;15.30;;;5.18;;
33138;SDS011;19501;50.948;5.316;2022-07-15T01:21:26;16.60;;;5.00;;
33138;SDS011;19501;50.948;5.316;2022-07-15T01:23:52;19.58;;;5.10;;
33138;SDS011;19501;50.948;5.316;2022-07-15T01:26:18;16.42;;;4.97;;
33138;SDS011;19501;50.948;5.316;2022-07-15T01:28:44;13.27;;;4.70;;
33138;SDS011;19501;50.948;5.316;2022-07-15T01:31:10;16.33;;;4.90;;
33138;SDS011;19501;50.948;5.316;2022-07-15T01:33:36;14.65;;;4.35;;
33138;SDS011;19501;50.948;5.316;2022-07-15T01:36:03;18.33;;;5.28;;
33138;SDS011;19501;50.948;5.316;2022-07-15T01:38:29;12.52;;;4.75;;
33138;SDS011;19501;50.948;5.316;2022-07-15T01:40:55;12.77;;;4.68;;
33138;SDS011;19501;50.948;5.316;2022-07-15T01:43:21;18.25;;;5.32;;
33138;SDS011;19501;50.948;5.316;2022-07-15T01:45:47;15.82;;;4.97;;
33138;SDS011;19501;50.948;5.316;2022-07-15T01:48:13;18.58;;;5.18;;
33138;SDS011;19501;50.948;5.316;2022-07-15T01:50:58;19.90;;;5.53;;
33138;SDS011;19501;50.948;5.316;2022-07-15T01:53:25;18.77;;;5.63;;
33138;SDS011;19501;50.948;5.316;2022-07-15T01:55:54;16.33;;;5.18;;
33138;SDS011;19501;50.948;5.316;2022-07-15T01:58:20;12.00;;;4.75;;
33138;SDS011;19501;50.948;5.316;2022-07-15T02:00:46;15.93;;;5.30;;
33138;SDS011;19501;50.948;5.316;2022-07-15T02:03:13;15.75;;;5.30;;
33138;SDS011;19501;50.948;5.316;2022-07-15T02:05:38;18.00;;;4.80;;
33138;SDS011;19501;50.948;5.316;2022-07-15T02:08:04;17.10;;;4.70;;
33138;SDS011;19501;50.948;5.316;2022-07-15T02:10:30;16.27;;;4.85;;
33138;SDS011;19501;50.948;5.316;2022-07-15T02:13:09;15.27;;;4.57;;
33138;SDS011;19501;50.948;5.316;2022-07-15T02:15:36;18.08;;;4.85;;
33138;SDS011;19501;50.948;5.316;2022-07-15T02:18:06;14.43;;;4.90;;
33138;SDS011;19501;50.948;5.316;2022-07-15T02:20:32;19.85;;;5.88;;
33138;SDS011;19501;50.948;5.316;2022-07-15T02:22:59;17.88;;;5.40;;
33138;SDS011;19501;50.948;5.316;2022-07-15T02:25:26;16.27;;;5.13;;
33138;SDS011;19501;50.948;5.316;2022-07-15T02:27:55;17.58;;;5.22;;
33138;SDS011;19501;50.948;5.316;2022-07-15T02:30:29;18.00;;;5.38;;
33138;SDS011;19501;50.948;5.316;2022-07-15T02:32:57;19.25;;;6.22;;
33138;SDS011;19501;50.948;5.316;2022-07-15T02:35:26;17.75;;;5.68;;
33138;SDS011;19501;50.948;5.316;2022-07-15T02:37:52;14.55;;;5.32;;
33138;SDS011;19501;50.948;5.316;2022-07-15T02:40:17;16.08;;;5.05;;
33138;SDS011;19501;50.948;5.316;2022-07-15T02:42:53;14.80;;;5.50;;
33138;SDS011;19501;50.948;5.316;2022-07-15T02:45:21;16.17;;;5.43;;
33138;SDS011;19501;50.948;5.316;2022-07-15T02:47:49;15.75;;;5.03;;
33138;SDS011;19501;50.948;5.316;2022-07-15T02:50:15;18.08;;;5.45;;
33138;SDS011;19501;50.948;5.316;2022-07-15T02:52:44;19.13;;;5.60;;
33138;SDS011;19501;50.948;5.316;2022-07-15T02:55:11;18.40;;;5.93;;
33138;SDS011;19501;50.948;5.316;2022-07-15T02:57:38;18.40;;;5.78;;
33138;SDS011;19501;50.948;5.316;2022-07-15T03:00:05;18.20;;;5.88;;
33138;SDS011;19501;50.948;5.316;2022-07-15T03:02:36;21.27;;;6.28;;
33138;SDS011;19501;50.948;5.316;2022-07-15T03:05:05;18.70;;;6.25;;
33138;SDS011;19501;50.948;5.316;2022-07-15T03:07:31;22.45;;;6.78;;
33138;SDS011;19501;50.948;5.316;2022-07-15T03:09:57;14.57;;;5.40;;
33138;SDS011;19501;50.948;5.316;2022-07-15T03:12:23;21.95;;;5.93;;
33138;SDS011;19501;50.948;5.316;2022-07-15T03:14:49;16.27;;;5.55;;
33138;SDS011;19501;50.948;5.316;2022-07-15T03:17:15;18.45;;;5.75;;
33138;SDS011;19501;50.948;5.316;2022-07-15T03:19:41;18.13;;;5.60;;
33138;SDS011;19501;50.948;5.316;2022-07-15T03:22:07;15.32;;;5.47;;
33138;SDS011;19501;50.948;5.316;2022-07-15T03:24:33;19.85;;;6.47;;
33138;SDS011;19501;50.948;5.316;2022-07-15T03:26:59;16.40;;;6.15;;
33138;SDS011;19501;50.948;5.316;2022-07-15T03:29:25;21.20;;;6.20;;
33138;SDS011;19501;50.948;5.316;2022-07-15T03:31:54;14.68;;;5.47;;
33138;SDS011;19501;50.948;5.316;2022-07-15T03:34:20;19.88;;;5.80;;
33138;SDS011;19501;50.948;5.316;2022-07-15T03:36:45;16.52;;;5.63;;
33138;SDS011;19501;50.948;5.316;2022-07-15T03:39:14;19.83;;;6.15;;
33138;SDS011;19501;50.948;5.316;2022-07-15T03:41:40;19.23;;;5.85;;
33138;SDS011;19501;50.948;5.316;2022-07-15T03:44:06;20.13;;;5.85;;
33138;SDS011;19501;50.948;5.316;2022-07-15T03:46:32;16.90;;;5.75;;
33138;SDS011;19501;50.948;5.316;2022-07-15T03:48:59;21.27;;;6.28;;
33138;SDS011;19501;50.948;5.316;2022-07-15T03:51:25;18.50;;;5.90;;
33138;SDS011;19501;50.948;5.316;2022-07-15T03:53:56;18.98;;;6.38;;
33138;SDS011;19501;50.948;5.316;2022-07-15T03:56:26;20.48;;;6.38;;
33138;SDS011;19501;50.948;5.316;2022-07-15T03:58:53;16.80;;;5.93;;
33138;SDS011;19501;50.948;5.316;2022-07-15T04:01:19;19.73;;;6.35;;
33138;SDS011;19501;50.948;5.316;2022-07-15T04:03:46;17.45;;;5.60;;
33138;SDS011;19501;50.948;5.316;2022-07-15T04:06:13;18.40;;;6.40;;
33138;SDS011;19501;50.948;5.316;2022-07-15T04:08:39;17.13;;;5.45;;
33138;SDS011;19501;50.948;5.316;2022-07-15T04:11:06;16.88;;;6.28;;
33138;SDS011;19501;50.948;5.316;2022-07-15T04:13:31;17.33;;;5.65;;
33138;SDS011;19501;50.948;5.316;2022-07-15T04:15:57;18.10;;;6.13;;
33138;SDS011;19501;50.948;5.316;2022-07-15T04:18:25;19.75;;;6.68;;
33138;SDS011;19501;50.948;5.316;2022-07-15T04:20:51;18.13;;;5.88;;
33138;SDS011;19501;50.948;5.316;2022-07-15T04:23:17;17.90;;;6.00;;
33138;SDS011;19501;50.948;5.316;2022-07-15T04:25:44;20.40;;;5.95;;
33138;SDS011;19501;50.948;5.316;2022-07-15T04:28:10;22.33;;;7.18;;
33138;SDS011;19501;50.948;5.316;2022-07-15T04:30:36;15.50;;;5.78;;
33138;SDS011;19501;50.948;5.316;2022-07-15T04:33:02;15.70;;;6.20;;
33138;SDS011;19501;50.948;5.316;2022-07-15T04:35:30;18.30;;;5.78;;
33138;SDS011;19501;50.948;5.316;2022-07-15T04:37:56;20.60;;;6.07;;
33138;SDS011;19501;50.948;5.316;2022-07-15T04:40:22;18.15;;;6.13;;
33138;SDS011;19501;50.948;5.316;2022-07-15T04:42:47;20.15;;;6.10;;
33138;SDS011;19501;50.948;5.316;2022-07-15T04:45:13;16.98;;;6.60;;
33138;SDS011;19501;50.948;5.316;2022-07-15T04:47:41;20.40;;;7.15;;
33138;SDS011;19501;50.948;5.316;2022-07-15T04:50:07;19.67;;;6.88;;
33138;SDS011;19501;50.948;5.316;2022-07-15T04:52:51;19.88;;;6.65;;
33138;SDS011;19501;50.948;5.316;2022-07-15T04:55:17;17.50;;;6.00;;
33138;SDS011;19501;50.948;5.316;2022-07-15T04:57:42;20.30;;;6.93;;
33138;SDS011;19501;50.948;5.316;2022-07-15T05:00:10;20.20;;;6.80;;
33138;SDS011;19501;50.948;5.316;2022-07-15T05:02:37;19.75;;;7.53;;
33138;SDS011;19501;50.948;5.316;2022-07-15T05:05:03;21.35;;;7.35;;
33138;SDS011;19501;50.948;5.316;2022-07-15T05:07:31;30.70;;;8.38;;
33138;SDS011;19501;50.948;5.316;2022-07-15T05:09:57;23.38;;;7.15;;
33138;SDS011;19501;50.948;5.316;2022-07-15T05:12:23;23.08;;;7.95;;
33138;SDS011;19501;50.948;5.316;2022-07-15T05:14:50;20.38;;;7.40;;
33138;SDS011;19501;50.948;5.316;2022-07-15T05:17:15;21.17;;;7.15;;
33138;SDS011;19501;50.948;5.316;2022-07-15T05:19:41;22.60;;;6.75;;
33138;SDS011;19501;50.948;5.316;2022-07-15T05:22:06;19.33;;;7.28;;
33138;SDS011;19501;50.948;5.316;2022-07-15T05:24:32;27.38;;;7.90;;
33138;SDS011;19501;50.948;5.316;2022-07-15T05:26:59;22.90;;;7.82;;
33138;SDS011;19501;50.948;5.316;2022-07-15T05:29:25;21.42;;;8.15;;
33138;SDS011;19501;50.948;5.316;2022-07-15T05:31:51;25.15;;;7.40;;
33138;SDS011;19501;50.948;5.316;2022-07-15T05:34:16;21.85;;;8.35;;
33138;SDS011;19501;50.948;5.316;2022-07-15T05:36:42;25.27;;;9.30;;
33138;SDS011;19501;50.948;5.316;2022-07-15T05:39:10;24.38;;;10.23;;
33138;SDS011;19501;50.948;5.316;2022-07-15T05:41:36;31.40;;;9.43;;
33138;SDS011;19501;50.948;5.316;2022-07-15T05:44:05;25.40;;;9.35;;
33138;SDS011;19501;50.948;5.316;2022-07-15T05:46:31;26.15;;;9.38;;
33138;SDS011;19501;50.948;5.316;2022-07-15T05:48:59;20.98;;;9.90;;
33138;SDS011;19501;50.948;5.316;2022-07-15T05:51:25;20.85;;;8.10;;
33138;SDS011;19501;50.948;5.316;2022-07-15T05:53:51;26.60;;;9.25;;
33138;SDS011;19501;50.948;5.316;2022-07-15T05:56:16;23.25;;;9.20;;
33138;SDS011;19501;50.948;5.316;2022-07-15T05:58:42;23.63;;;8.57;;
33138;SDS011;19501;50.948;5.316;2022-07-15T06:01:08;23.80;;;9.88;;
33138;SDS011;19501;50.948;5.316;2022-07-15T06:03:34;25.63;;;9.57;;
33138;SDS011;19501;50.948;5.316;2022-07-15T06:06:03;25.67;;;9.45;;
33138;SDS011;19501;50.948;5.316;2022-07-15T06:08:30;25.80;;;7.93;;
33138;SDS011;19501;50.948;5.316;2022-07-15T06:10:56;27.45;;;7.95;;
33138;SDS011;19501;50.948;5.316;2022-07-15T06:13:22;19.92;;;7.57;;
33138;SDS011;19501;50.948;5.316;2022-07-15T06:15:48;25.75;;;8.02;;
33138;SDS011;19501;50.948;5.316;2022-07-15T06:18:14;20.40;;;6.80;;
33138;SDS011;19501;50.948;5.316;2022-07-15T06:20:41;21.67;;;6.78;;
33138;SDS011;19501;50.948;5.316;2022-07-15T06:23:06;25.33;;;7.18;;
33138;SDS011;19501;50.948;5.316;2022-07-15T06:25:32;22.08;;;7.03;;
33138;SDS011;19501;50.948;5.316;2022-07-15T06:27:58;23.55;;;6.60;;
33138;SDS011;19501;50.948;5.316;2022-07-15T06:30:23;19.08;;;6.25;;
33138;SDS011;19501;50.948;5.316;2022-07-15T06:32:49;23.58;;;6.68;;
33138;SDS011;19501;50.948;5.316;2022-07-15T06:35:15;16.23;;;5.40;;
33138;SDS011;19501;50.948;5.316;2022-07-15T06:37:41;18.58;;;5.68;;
33138;SDS011;19501;50.948;5.316;2022-07-15T06:40:07;19.83;;;5.78;;
33138;SDS011;19501;50.948;5.316;2022-07-15T06:42:33;20.27;;;5.63;;
33138;SDS011;19501;50.948;5.316;2022-07-15T06:44:59;19.65;;;6.38;;
33138;SDS011;19501;50.948;5.316;2022-07-15T06:47:24;15.50;;;5.07;;
33138;SDS011;19501;50.948;5.316;2022-07-15T06:49:50;17.00;;;4.60;;
33138;SDS011;19501;50.948;5.316;2022-07-15T06:52:16;16.90;;;3.78;;
33138;SDS011;19501;50.948;5.316;2022-07-15T06:54:43;15.63;;;4.35;;
33138;SDS011;19501;50.948;5.316;2022-07-15T06:57:08;20.05;;;5.05;;
33138;SDS011;19501;50.948;5.316;2022-07-15T06:59:36;16.58;;;3.97;;
33138;SDS011;19501;50.948;5.316;2022-07-15T07:02:04;14.82;;;4.45;;
33138;SDS011;19501;50.948;5.316;2022-07-15T07:04:30;16.13;;;4.15;;
33138;SDS011;19501;50.948;5.316;2022-07-15T07:06:58;14.98;;;3.53;;
33138;SDS011;19501;50.948;5.316;2022-07-15T07:09:24;14.20;;;3.47;;
33138;SDS011;19501;50.948;5.316;2022-07-15T07:11:49;15.93;;;4.45;;
33138;SDS011;19501;50.948;5.316;2022-07-15T07:14:15;17.02;;;3.85;;
33138;SDS011;19501;50.948;5.316;2022-07-15T07:16:41;17.15;;;3.80;;
33138;SDS011;19501;50.948;5.316;2022-07-15T07:19:07;14.02;;;3.72;;
33138;SDS011;19501;50.948;5.316;2022-07-15T07:21:33;13.05;;;3.20;;
33138;SDS011;19501;50.948;5.316;2022-07-15T07:24:00;12.45;;;3.33;;
33138;SDS011;19501;50.948;5.316;2022-07-15T07:26:25;12.25;;;3.08;;
33138;SDS011;19501;50.948;5.316;2022-07-15T07:28:52;14.30;;;4.07;;
33138;SDS011;19501;50.948;5.316;2022-07-15T07:31:18;7.72;;;3.10;;
33138;SDS011;19501;50.948;5.316;2022-07-15T07:33:47;13.40;;;3.25;;
33138;SDS011;19501;50.948;5.316;2022-07-15T07:36:13;12.73;;;3.45;;
33138;SDS011;19501;50.948;5.316;2022-07-15T07:38:40;16.10;;;3.92;;
33138;SDS011;19501;50.948;5.316;2022-07-15T07:41:06;9.98;;;3.03;;
33138;SDS011;19501;50.948;5.316;2022-07-15T07:43:32;15.57;;;3.30;;
33138;SDS011;19501;50.948;5.316;2022-07-15T07:45:59;13.95;;;2.85;;
33138;SDS011;19501;50.948;5.316;2022-07-15T07:48:26;9.90;;;2.53;;
33138;SDS011;19501;50.948;5.316;2022-07-15T07:50:53;13.27;;;2.90;;
33138;SDS011;19501;50.948;5.316;2022-07-15T07:53:18;8.02;;;2.78;;
33138;SDS011;19501;50.948;5.316;2022-07-15T07:55:44;15.05;;;3.67;;
33138;SDS011;19501;50.948;5.316;2022-07-15T07:58:10;6.55;;;2.40;;
33138;SDS011;19501;50.948;5.316;2022-07-15T08:00:40;14.60;;;2.75;;
33138;SDS011;19501;50.948;5.316;2022-07-15T08:03:06;9.40;;;3.03;;
33138;SDS011;19501;50.948;5.316;2022-07-15T08:05:32;13.95;;;2.78;;
33138;SDS011;19501;50.948;5.316;2022-07-15T08:08:31;8.10;;;2.25;;
33138;SDS011;19501;50.948;5.316;2022-07-15T08:10:52;10.13;;;2.55;;
33138;SDS011;19501;50.948;5.316;2022-07-15T08:13:21;13.20;;;2.20;;
33138;SDS011;19501;50.948;5.316;2022-07-15T08:15:49;6.55;;;2.33;;
33138;SDS011;19501;50.948;5.316;2022-07-15T08:18:15;13.27;;;3.08;;
33138;SDS011;19501;50.948;5.316;2022-07-15T08:20:44;8.30;;;2.10;;
33138;SDS011;19501;50.948;5.316;2022-07-15T08:23:09;8.38;;;2.13;;
33138;SDS011;19501;50.948;5.316;2022-07-15T08:25:36;9.65;;;2.60;;
33138;SDS011;19501;50.948;5.316;2022-07-15T08:28:02;9.15;;;2.20;;
33138;SDS011;19501;50.948;5.316;2022-07-15T08:30:29;10.07;;;2.58;;
33138;SDS011;19501;50.948;5.316;2022-07-15T08:32:59;10.43;;;2.28;;
33138;SDS011;19501;50.948;5.316;2022-07-15T08:35:28;7.47;;;2.35;;
33138;SDS011;19501;50.948;5.316;2022-07-15T08:37:54;10.65;;;2.55;;
33138;SDS011;19501;50.948;5.316;2022-07-15T08:40:21;11.43;;;2.55;;
33138;SDS011;19501;50.948;5.316;2022-07-15T08:42:47;10.98;;;2.25;;
33138;SDS011;19501;50.948;5.316;2022-07-15T08:45:15;6.05;;;2.00;;
33138;SDS011;19501;50.948;5.316;2022-07-15T08:47:42;7.70;;;1.92;;
33138;SDS011;19501;50.948;5.316;2022-07-15T08:50:12;7.88;;;2.25;;
33138;SDS011;19501;50.948;5.316;2022-07-15T08:52:40;10.13;;;2.10;;
33138;SDS011;19501;50.948;5.316;2022-07-15T08:55:08;7.90;;;2.10;;
33138;SDS011;19501;50.948;5.316;2022-07-15T08:57:34;4.53;;;2.05;;
33138;SDS011;19501;50.948;5.316;2022-07-15T09:00:01;10.43;;;2.00;;
33138;SDS011;19501;50.948;5.316;2022-07-15T09:02:31;13.73;;;2.47;;
33138;SDS011;19501;50.948;5.316;2022-07-15T09:05:18;4.90;;;1.90;;
33138;SDS011;19501;50.948;5.316;2022-07-15T09:08:05;11.88;;;2.45;;
33138;SDS011;19501;50.948;5.316;2022-07-15T09:13:30;7.50;;;2.10;;
33138;SDS011;19501;50.948;5.316;2022-07-15T09:15:58;10.63;;;2.70;;
33138;SDS011;19501;50.948;5.316;2022-07-15T09:18:27;8.50;;;2.22;;
33138;SDS011;19501;50.948;5.316;2022-07-15T09:20:55;8.57;;;2.08;;
33138;SDS011;19501;50.948;5.316;2022-07-15T09:23:23;9.02;;;2.30;;
33138;SDS011;19501;50.948;5.316;2022-07-15T09:29:05;6.22;;;2.10;;
33138;SDS011;19501;50.948;5.316;2022-07-15T09:31:55;8.38;;;2.67;;
33138;SDS011;19501;50.948;5.316;2022-07-15T09:34:59;6.50;;;2.53;;
33138;SDS011;19501;50.948;5.316;2022-07-15T09:37:32;9.23;;;2.42;;
33138;SDS011;19501;50.948;5.316;2022-07-15T09:39:58;12.90;;;2.42;;
33138;SDS011;19501;50.948;5.316;2022-07-15T09:42:25;7.05;;;2.30;;
33138;SDS011;19501;50.948;5.316;2022-07-15T09:44:51;4.45;;;2.13;;
33138;SDS011;19501;50.948;5.316;2022-07-15T09:47:18;8.10;;;2.20;;
33138;SDS011;19501;50.948;5.316;2022-07-15T09:49:47;9.65;;;2.33;;
33138;SDS011;19501;50.948;5.316;2022-07-15T09:52:14;5.53;;;2.10;;
33138;SDS011;19501;50.948;5.316;2022-07-15T09:54:49;5.53;;;2.10;;
33138;SDS011;19501;50.948;5.316;2022-07-15T09:57:16;10.13;;;2.25;;
33138;SDS011;19501;50.948;5.316;2022-07-15T09:59:47;9.65;;;2.25;;
33138;SDS011;19501;50.948;5.316;2022-07-15T10:02:14;12.77;;;2.38;;
33138;SDS011;19501;50.948;5.316;2022-07-15T10:04:41;9.93;;;2.25;;
33138;SDS011;19501;50.948;5.316;2022-07-15T10:07:08;7.40;;;2.00;;
33138;SDS011;19501;50.948;5.316;2022-07-15T10:09:37;9.75;;;2.20;;
33138;SDS011;19501;50.948;5.316;2022-07-15T10:12:06;8.38;;;2.20;;
33138;SDS011;19501;50.948;5.316;2022-07-15T10:28:52;7.43;;;1.90;;
33138;SDS011;19501;50.948;5.316;2022-07-15T10:31:22;8.35;;;2.15;;
33138;SDS011;19501;50.948;5.316;2022-07-15T10:39:15;9.02;;;2.42;;
33138;SDS011;19501;50.948;5.316;2022-07-15T10:41:54;6.25;;;1.80;;
33138;SDS011;19501;50.948;5.316;2022-07-15T10:44:24;5.78;;;1.70;;
33138;SDS011;19501;50.948;5.316;2022-07-15T10:49:39;7.32;;;1.98;;
33138;SDS011;19501;50.948;5.316;2022-07-15T10:52:33;5.28;;;1.70;;
33138;SDS011;19501;50.948;5.316;2022-07-15T10:55:02;6.95;;;1.77;;
33138;SDS011;19501;50.948;5.316;2022-07-15T10:58:03;4.70;;;2.13;;
33138;SDS011;19501;50.948;5.316;2022-07-15T11:06:08;5.47;;;1.88;;
33138;SDS011;19501;50.948;5.316;2022-07-15T11:13:43;6.50;;;2.00;;
33138;SDS011;19501;50.948;5.316;2022-07-15T11:16:11;7.30;;;1.77;;
33138;SDS011;19501;50.948;5.316;2022-07-15T11:18:44;5.50;;;1.75;;
33138;SDS011;19501;50.948;5.316;2022-07-15T11:21:12;5.93;;;1.67;;
33138;SDS011;19501;50.948;5.316;2022-07-15T11:23:38;13.75;;;2.42;;
33138;SDS011;19501;50.948;5.316;2022-07-15T11:26:04;3.28;;;1.80;;
33138;SDS011;19501;50.948;5.316;2022-07-15T11:28:30;8.15;;;1.77;;
33138;SDS011;19501;50.948;5.316;2022-07-15T11:30:57;11.27;;;2.33;;
33138;SDS011;19501;50.948;5.316;2022-07-15T11:33:23;6.43;;;1.70;;
33138;SDS011;19501;50.948;5.316;2022-07-15T11:35:57;4.22;;;1.63;;
33138;SDS011;19501;50.948;5.316;2022-07-15T11:38:26;7.03;;;1.88;;
33138;SDS011;19501;50.948;5.316;2022-07-15T11:40:54;4.88;;;1.90;;
33138;SDS011;19501;50.948;5.316;2022-07-15T11:43:40;4.78;;;1.60;;
33138;SDS011;19501;50.948;5.316;2022-07-15T11:46:25;6.18;;;2.03;;
33138;SDS011;19501;50.948;5.316;2022-07-15T11:48:54;8.48;;;2.00;;
33138;SDS011;19501;50.948;5.316;2022-07-15T11:51:28;6.45;;;1.80;;
33138;SDS011;19501;50.948;5.316;2022-07-15T11:53:56;8.90;;;1.75;;
33138;SDS011;19501;50.948;5.316;2022-07-15T11:56:24;7.88;;;1.80;;
33138;SDS011;19501;50.948;5.316;2022-07-15T11:58:51;6.53;;;1.63;;
33138;SDS011;19501;50.948;5.316;2022-07-15T12:01:20;4.22;;;1.60;;
33138;SDS011;19501;50.948;5.316;2022-07-15T12:03:53;4.65;;;1.77;;
33138;SDS011;19501;50.948;5.316;2022-07-15T12:11:17;3.25;;;1.60;;
33138;SDS011;19501;50.948;5.316;2022-07-15T12:13:47;3.42;;;1.35;;
33138;SDS011;19501;50.948;5.316;2022-07-15T12:16:31;5.18;;;1.30;;
33138;SDS011;19501;50.948;5.316;2022-07-15T12:19:05;6.57;;;1.98;;
33138;SDS011;19501;50.948;5.316;2022-07-15T12:21:33;4.82;;;1.40;;
33138;SDS011;19501;50.948;5.316;2022-07-15T12:24:02;5.00;;;1.65;;
33138;SDS011;19501;50.948;5.316;2022-07-15T12:26:30;5.47;;;1.38;;
33138;SDS011;19501;50.948;5.316;2022-07-15T12:28:58;3.58;;;1.50;;
33138;SDS011;19501;50.948;5.316;2022-07-15T12:31:26;6.10;;;1.60;;
33138;SDS011;19501;50.948;5.316;2022-07-15T12:33:52;8.32;;;1.85;;
33138;SDS011;19501;50.948;5.316;2022-07-15T12:36:19;6.88;;;1.90;;
33138;SDS011;19501;50.948;5.316;2022-07-15T12:39:07;9.77;;;2.80;;
33138;SDS011;19501;50.948;5.316;2022-07-15T12:41:38;6.50;;;1.60;;
33138;SDS011;19501;50.948;5.316;2022-07-15T12:44:05;7.15;;;1.83;;
33138;SDS011;19501;50.948;5.316;2022-07-15T12:49:37;4.03;;;1.70;;
33138;SDS011;19501;50.948;5.316;2022-07-15T12:52:23;4.45;;;1.80;;
33138;SDS011;19501;50.948;5.316;2022-07-15T12:54:54;3.63;;;1.60;;
33138;SDS011;19501;50.948;5.316;2022-07-15T12:59:54;4.60;;;2.10;;
33138;SDS011;19501;50.948;5.316;2022-07-15T13:02:22;7.43;;;1.88;;
33138;SDS011;19501;50.948;5.316;2022-07-15T13:04:49;6.47;;;1.63;;
33138;SDS011;19501;50.948;5.316;2022-07-15T13:07:15;7.47;;;1.92;;
33138;SDS011;19501;50.948;5.316;2022-07-15T13:09:43;6.80;;;1.92;;
33138;SDS011;19501;50.948;5.316;2022-07-15T13:12:09;5.90;;;1.98;;
33138;SDS011;19501;50.948;5.316;2022-07-15T13:14:37;5.35;;;2.20;;
33138;SDS011;19501;50.948;5.316;2022-07-15T13:17:03;7.43;;;2.13;;
33138;SDS011;19501;50.948;5.316;2022-07-15T13:19:29;5.80;;;1.70;;
33138;SDS011;19501;50.948;5.316;2022-07-15T13:21:56;4.03;;;1.83;;
33138;SDS011;19501;50.948;5.316;2022-07-15T13:24:21;5.22;;;1.80;;
33138;SDS011;19501;50.948;5.316;2022-07-15T13:26:50;5.63;;;1.45;;
33138;SDS011;19501;50.948;5.316;2022-07-15T13:29:16;12.30;;;2.38;;
33138;SDS011;19501;50.948;5.316;2022-07-15T13:31:42;4.15;;;1.60;;
33138;SDS011;19501;50.948;5.316;2022-07-15T13:34:08;5.70;;;1.90;;
33138;SDS011;19501;50.948;5.316;2022-07-15T13:36:34;3.83;;;1.83;;
33138;SDS011;19501;50.948;5.316;2022-07-15T13:39:01;5.07;;;1.63;;
33138;SDS011;19501;50.948;5.316;2022-07-15T13:41:27;3.53;;;1.63;;
33138;SDS011;19501;50.948;5.316;2022-07-15T13:43:53;6.38;;;2.13;;
33138;SDS011;19501;50.948;5.316;2022-07-15T13:46:19;3.60;;;2.30;;
33138;SDS011;19501;50.948;5.316;2022-07-15T13:48:45;10.35;;;2.20;;
33138;SDS011;19501;50.948;5.316;2022-07-15T13:51:11;7.45;;;1.90;;
33138;SDS011;19501;50.948;5.316;2022-07-15T13:53:50;5.25;;;2.00;;
33138;SDS011;19501;50.948;5.316;2022-07-15T13:56:20;7.55;;;1.92;;
33138;SDS011;19501;50.948;5.316;2022-07-15T13:58:46;4.65;;;2.20;;
33138;SDS011;19501;50.948;5.316;2022-07-15T14:01:13;4.18;;;1.65;;
33138;SDS011;19501;50.948;5.316;2022-07-15T14:03:40;8.48;;;2.35;;
33138;SDS011;19501;50.948;5.316;2022-07-15T14:06:06;7.28;;;2.00;;
33138;SDS011;19501;50.948;5.316;2022-07-15T14:08:32;8.15;;;2.17;;
33138;SDS011;19501;50.948;5.316;2022-07-15T14:10:59;6.75;;;1.80;;
33138;SDS011;19501;50.948;5.316;2022-07-15T14:13:26;4.38;;;1.73;;
33138;SDS011;19501;50.948;5.316;2022-07-15T14:15:52;5.45;;;1.92;;
33138;SDS011;19501;50.948;5.316;2022-07-15T14:18:18;7.22;;;1.77;;
33138;SDS011;19501;50.948;5.316;2022-07-15T14:21:03;5.72;;;1.90;;
33138;SDS011;19501;50.948;5.316;2022-07-15T14:23:29;6.95;;;2.00;;
33138;SDS011;19501;50.948;5.316;2022-07-15T14:25:55;7.03;;;1.90;;
33138;SDS011;19501;50.948;5.316;2022-07-15T14:28:20;7.25;;;2.40;;
33138;SDS011;19501;50.948;5.316;2022-07-15T14:30:46;9.73;;;2.33;;
33138;SDS011;19501;50.948;5.316;2022-07-15T14:33:11;4.13;;;2.00;;
33138;SDS011;19501;50.948;5.316;2022-07-15T14:35:37;5.43;;;2.20;;
33138;SDS011;19501;50.948;5.316;2022-07-15T14:38:03;6.40;;;1.92;;
33138;SDS011;19501;50.948;5.316;2022-07-15T14:40:29;3.90;;;1.80;;
33138;SDS011;19501;50.948;5.316;2022-07-15T14:42:58;6.90;;;2.15;;
33138;SDS011;19501;50.948;5.316;2022-07-15T14:45:24;10.75;;;2.35;;
33138;SDS011;19501;50.948;5.316;2022-07-15T14:47:50;6.25;;;2.05;;
33138;SDS011;19501;50.948;5.316;2022-07-15T14:50:16;4.00;;;1.92;;
33138;SDS011;19501;50.948;5.316;2022-07-15T14:52:42;13.27;;;2.60;;
33138;SDS011;19501;50.948;5.316;2022-07-15T14:55:07;5.80;;;1.95;;
33138;SDS011;19501;50.948;5.316;2022-07-15T14:57:33;5.32;;;1.90;;
33138;SDS011;19501;50.948;5.316;2022-07-15T14:59:59;4.85;;;1.88;;
33138;SDS011;19501;50.948;5.316;2022-07-15T15:02:25;5.57;;;2.10;;
33138;SDS011;19501;50.948;5.316;2022-07-15T15:04:52;4.85;;;1.88;;
33138;SDS011;19501;50.948;5.316;2022-07-15T15:07:18;8.70;;;2.28;;
33138;SDS011;19501;50.948;5.316;2022-07-15T15:09:44;3.97;;;2.30;;
33138;SDS011;19501;50.948;5.316;2022-07-15T15:12:10;6.45;;;2.25;;
33138;SDS011;19501;50.948;5.316;2022-07-15T15:14:36;4.75;;;2.00;;
33138;SDS011;19501;50.948;5.316;2022-07-15T15:17:02;8.27;;;2.33;;
33138;SDS011;19501;50.948;5.316;2022-07-15T15:19:28;8.73;;;2.20;;
33138;SDS011;19501;50.948;5.316;2022-07-15T15:21:54;6.57;;;2.28;;
33138;SDS011;19501;50.948;5.316;2022-07-15T15:24:20;11.07;;;2.92;;
33138;SDS011;19501;50.948;5.316;2022-07-15T15:26:45;5.43;;;2.00;;
33138;SDS011;19501;50.948;5.316;2022-07-15T15:29:14;9.90;;;2.72;;
33138;SDS011;19501;50.948;5.316;2022-07-15T15:31:40;6.70;;;1.90;;
33138;SDS011;19501;50.948;5.316;2022-07-15T15:34:06;6.45;;;2.42;;